Terminal Aerodrome Forecast
Issued by NWS

Home | Current Version | Previous Version | Text Only | Print | Product List | Glossary On
Versions: 1 2 3 4 5 6 7 8 9 10 11 12 13
653
FTUS46 KSEW 251908 AAA
TAFBLI
TAF AMD
KBLI 251908Z 2519/2618 16012G20KT P6SM SCT035 BKN200
     FM252100 16012G20KT P6SM BKN040 BKN120
     FM260300 16012G20KT P6SM -RA OVC040
     FM261400 20012KT P6SM -SHRA BKN025
     FM261700 20012KT P6SM VCSH BKN040=

USA.gov is the U.S. government's official web portal to all federal, state and local government web resources and services.